Time,TemperatureF,DewpointF,PressureIn,WindDirection,WindDirectionDegrees,WindSpeedMPH,WindSpeedGustMPH,Humidity,HourlyPrecipIn,Conditions,Clouds,dailyrainin,SoftwareType,DateUTC
2013-11-28 00:12:00,18.0,11.0,30.31,WSW,242,0.0,3.0,73,0.00,,,0.00,,2013-11-28 06:12:00,
2013-11-28 00:22:00,18.0,11.0,30.31,WSW,243,0.0,1.0,74,0.00,,,0.00,,2013-11-28 06:22:00,
2013-11-28 00:42:00,18.0,12.0,30.31,SSW,196,0.0,3.0,76,0.00,,,0.00,,2013-11-28 06:42:00,
2013-11-28 00:52:00,19.0,13.0,30.30,SSW,202,0.0,3.0,76,0.00,,,0.00,,2013-11-28 06:52:00,
2013-11-28 01:11:00,20.0,13.0,30.30,SSW,202,0.0,2.0,74,0.00,,,0.00,,2013-11-28 07:11:00,
2013-11-28 01:21:00,20.0,12.0,30.30,SSW,202,0.0,2.0,72,0.00,,,0.00,,2013-11-28 07:21:00,
2013-11-28 01:42:00,20.0,12.0,30.30,SW,223,1.0,4.0,70,0.00,,,0.00,,2013-11-28 07:42:00,
2013-11-28 01:52:00,20.0,12.0,30.31,WSW,245,1.0,3.0,70,0.00,,,0.00,,2013-11-28 07:52:00,
2013-11-28 02:11:00,19.0,11.0,30.31,SW,232,0.0,3.0,70,0.00,,,0.00,,2013-11-28 08:11:00,
2013-11-28 02:22:00,19.0,11.0,30.31,SSW,207,0.0,3.0,72,0.00,,,0.00,,2013-11-28 08:22:00,
2013-11-28 02:42:00,20.0,12.0,30.31,South,175,0.0,4.0,72,0.00,,,0.00,,2013-11-28 08:42:00,
2013-11-28 02:53:00,20.0,12.0,30.31,South,180,1.0,4.0,71,0.00,,,0.00,,2013-11-28 08:53:00,
2013-11-28 03:11:00,19.0,11.0,30.30,South,188,2.0,4.0,72,0.00,,,0.00,,2013-11-28 09:11:00,
2013-11-28 03:21:00,20.0,12.0,30.29,SSW,204,4.0,7.0,70,0.00,,,0.00,,2013-11-28 09:21:00,
2013-11-28 03:43:00,21.0,11.0,30.29,South,178,4.0,10.0,66,0.00,,,0.00,,2013-11-28 09:43:00,
2013-11-28 03:53:00,21.0,11.0,30.28,South,187,2.0,7.0,66,0.00,,,0.00,,2013-11-28 09:53:00,
2013-11-28 04:23:00,22.0,11.0,30.26,South,186,6.0,12.0,62,0.00,,,0.00,,2013-11-28 10:23:00,
2013-11-28 04:43:00,22.0,11.0,30.26,SW,227,7.0,12.0,62,0.00,,,0.00,,2013-11-28 10:43:00,
2013-11-28 04:52:00,22.0,11.0,30.25,SSW,210,6.0,13.0,62,0.00,,,0.00,,2013-11-28 10:52:00,
2013-11-28 05:12:00,22.0,11.0,30.24,SW,221,8.0,13.0,62,0.00,,,0.00,,2013-11-28 11:12:00,
2013-11-28 05:22:00,23.0,12.0,30.24,SSW,196,7.0,16.0,62,0.00,,,0.00,,2013-11-28 11:22:00,
2013-11-28 05:42:00,23.0,12.0,30.24,SSW,209,9.0,16.0,61,0.00,,,0.00,,2013-11-28 11:42:00,
2013-11-28 05:52:00,22.0,11.0,30.24,SSW,196,8.0,15.0,61,0.00,,,0.00,,2013-11-28 11:52:00,
2013-11-28 06:12:00,22.0,11.0,30.24,South,186,8.0,14.0,63,0.00,,,0.00,,2013-11-28 12:12:00,
2013-11-28 06:22:00,22.0,12.0,30.23,South,187,7.0,14.0,64,0.00,,,0.00,,2013-11-28 12:22:00,
2013-11-28 06:42:00,22.0,12.0,30.23,SW,218,8.0,14.0,64,0.00,,,0.00,,2013-11-28 12:42:00,
2013-11-28 06:52:00,22.0,11.0,30.22,SSE,155,5.0,14.0,63,0.00,,,0.00,,2013-11-28 12:52:00,
2013-11-28 07:11:00,21.0,11.0,30.23,South,182,5.0,11.0,65,0.00,,,0.00,,2013-11-28 13:11:00,
2013-11-28 07:21:00,21.0,11.0,30.23,South,171,6.0,11.0,66,0.00,,,0.00,,2013-11-28 13:21:00,
2013-11-28 07:42:00,21.0,12.0,30.23,South,187,5.0,10.0,67,0.00,,,0.00,,2013-11-28 13:42:00,
2013-11-28 07:52:00,22.0,12.0,30.24,South,169,6.0,12.0,66,0.00,,,0.00,,2013-11-28 13:52:00,
2013-11-28 08:11:00,22.0,12.0,30.23,SSW,197,7.0,11.0,66,0.00,,,0.00,,2013-11-28 14:11:00,
2013-11-28 08:22:00,23.0,13.0,30.24,South,175,7.0,14.0,66,0.00,,,0.00,,2013-11-28 14:22:00,
2013-11-28 08:42:00,24.0,14.0,30.24,South,188,6.0,12.0,65,0.00,,,0.00,,2013-11-28 14:42:00,
2013-11-28 08:52:00,24.0,14.0,30.24,South,181,6.0,17.0,65,0.00,,,0.00,,2013-11-28 14:52:00,
2013-11-28 09:12:00,25.0,15.0,30.24,SE,142,6.0,13.0,64,0.00,,,0.00,,2013-11-28 15:12:00,
2013-11-28 09:22:00,26.0,15.0,30.24,SW,215,8.0,18.0,63,0.00,,,0.00,,2013-11-28 15:22:00,
2013-11-28 09:44:00,26.0,15.0,30.24,WSW,242,4.0,11.0,63,0.00,,,0.00,,2013-11-28 15:44:00,
2013-11-28 09:54:00,27.0,16.0,30.24,WSW,257,5.0,17.0,62,0.00,,,0.00,,2013-11-28 15:54:00,
2013-11-28 10:13:00,28.0,16.0,30.24,West,271,8.0,15.0,60,0.00,,,0.00,,2013-11-28 16:13:00,
2013-11-28 10:23:00,28.0,16.0,30.24,SSE,168,7.0,14.0,59,0.00,,,0.00,,2013-11-28 16:23:00,
2013-11-28 10:43:00,29.0,16.0,30.24,WSW,257,7.0,15.0,59,0.00,,,0.00,,2013-11-28 16:43:00,
2013-11-28 10:53:00,30.0,17.0,30.24,West,259,4.0,14.0,58,0.00,,,0.00,,2013-11-28 16:53:00,
2013-11-28 11:12:00,31.0,18.0,30.24,SSW,199,4.0,13.0,58,0.00,,,0.00,,2013-11-28 17:12:00,
2013-11-28 11:23:00,31.0,17.0,30.24,WSW,254,8.0,17.0,55,0.00,,,0.00,,2013-11-28 17:23:00,
2013-11-28 11:42:00,32.0,17.0,30.24,West,265,6.0,11.0,54,0.00,,,0.00,,2013-11-28 17:42:00,
2013-11-28 11:52:00,33.0,18.0,30.23,SW,232,5.0,11.0,54,0.00,,,0.00,,2013-11-28 17:52:00,
2013-11-28 12:12:00,33.0,19.0,30.24,WNW,283,4.0,12.0,55,0.00,,,0.00,,2013-11-28 18:12:00,
2013-11-28 12:22:00,33.0,18.0,30.23,West,271,4.0,10.0,53,0.00,,,0.00,,2013-11-28 18:22:00,
2013-11-28 12:42:00,34.0,19.0,30.23,NW,311,3.0,8.0,53,0.00,,,0.00,,2013-11-28 18:42:00,
2013-11-28 12:52:00,35.0,20.0,30.23,West,272,4.0,9.0,53,0.00,,,0.00,,2013-11-28 18:52:00,
2013-11-28 13:11:00,35.0,19.0,30.24,WNW,301,5.0,10.0,51,0.00,,,0.00,,2013-11-28 19:11:00,
2013-11-28 13:22:00,35.0,19.0,30.24,WSW,248,6.0,12.0,51,0.00,,,0.00,,2013-11-28 19:22:00,
2013-11-28 13:42:00,36.0,20.0,30.24,West,270,4.0,9.0,51,0.00,,,0.00,,2013-11-28 19:42:00,
2013-11-28 13:52:00,36.0,19.0,30.25,West,261,6.0,10.0,50,0.00,,,0.00,,2013-11-28 19:52:00,
2013-11-28 14:12:00,36.0,20.0,30.25,SW,236,4.0,12.0,51,0.00,,,0.00,,2013-11-28 20:12:00,
2013-11-28 14:22:00,36.0,20.0,30.26,WSW,256,4.0,9.0,51,0.00,,,0.00,,2013-11-28 20:22:00,
2013-11-28 14:52:00,37.0,21.0,30.27,WNW,284,3.0,8.0,51,0.00,,,0.00,,2013-11-28 20:52:00,
2013-11-28 15:11:00,37.0,21.0,30.28,NW,315,4.0,10.0,51,0.00,,,0.00,,2013-11-28 21:11:00,
2013-11-28 15:21:00,37.0,21.0,30.29,SSW,207,3.0,9.0,51,0.00,,,0.00,,2013-11-28 21:21:00,
2013-11-28 15:43:00,37.0,21.0,30.29,WNW,296,3.0,10.0,51,0.00,,,0.00,,2013-11-28 21:43:00,
2013-11-28 15:53:00,36.0,20.0,30.30,WNW,290,3.0,10.0,52,0.00,,,0.00,,2013-11-28 21:53:00,
2013-11-28 16:13:00,35.0,20.0,30.31,NW,304,2.0,8.0,53,0.00,,,0.00,,2013-11-28 22:13:00,
2013-11-28 16:23:00,35.0,20.0,30.32,WNW,303,2.0,6.0,55,0.00,,,0.00,,2013-11-28 22:23:00,
2013-11-28 16:42:00,34.0,20.0,30.33,NW,315,2.0,7.0,56,0.00,,,0.00,,2013-11-28 22:42:00,
2013-11-28 16:53:00,33.0,19.0,30.34,WNW,286,0.0,4.0,57,0.00,,,0.00,,2013-11-28 22:53:00,
2013-11-28 17:12:00,32.0,19.0,30.35,WNW,302,1.0,6.0,59,0.00,,,0.00,,2013-11-28 23:12:00,
2013-11-28 17:21:00,32.0,19.0,30.36,NW,320,0.0,4.0,59,0.00,,,0.00,,2013-11-28 23:21:00,
2013-11-28 17:42:00,31.0,19.0,30.37,North,9,0.0,3.0,61,0.00,,,0.00,,2013-11-28 23:42:00,
2013-11-28 17:52:00,31.0,20.0,30.38,NW,315,1.0,6.0,62,0.00,,,0.00,,2013-11-28 23:52:00,
2013-11-28 18:11:00,30.0,19.0,30.39,NNW,348,0.0,4.0,63,0.00,,,0.00,,2013-11-29 00:11:00,
2013-11-28 18:21:00,29.0,18.0,30.40,West,274,0.0,4.0,64,0.00,,,0.00,,2013-11-29 00:21:00,
2013-11-28 18:42:00,29.0,19.0,30.41,North,355,0.0,5.0,65,0.00,,,0.00,,2013-11-29 00:42:00,
2013-11-28 18:52:00,28.0,18.0,30.42,WNW,302,0.0,3.0,65,0.00,,,0.00,,2013-11-29 00:52:00,
2013-11-28 19:12:00,28.0,18.0,30.43,NW,324,0.0,3.0,66,0.00,,,0.00,,2013-11-29 01:12:00,
2013-11-28 19:21:00,28.0,18.0,30.44,WNW,294,1.0,4.0,66,0.00,,,0.00,,2013-11-29 01:21:00,
2013-11-28 19:42:00,28.0,18.0,30.44,NW,304,1.0,6.0,66,0.00,,,0.00,,2013-11-29 01:42:00,
2013-11-28 19:52:00,28.0,18.0,30.45,WNW,297,0.0,4.0,67,0.00,,,0.00,,2013-11-29 01:52:00,
2013-11-28 20:12:00,27.0,18.0,30.45,North,349,0.0,3.0,68,0.00,,,0.00,,2013-11-29 02:12:00,
2013-11-28 20:22:00,26.0,17.0,30.45,WNW,288,0.0,2.0,69,0.00,,,0.00,,2013-11-29 02:22:00,
2013-11-28 20:42:00,26.0,18.0,30.46,NW,321,0.0,3.0,70,0.00,,,0.00,,2013-11-29 02:42:00,
2013-11-28 20:52:00,26.0,17.0,30.46,NW,323,0.0,3.0,69,0.00,,,0.00,,2013-11-29 02:52:00,
2013-11-28 21:21:00,25.0,17.0,30.47,North,10,2.0,6.0,71,0.00,,,0.00,,2013-11-29 03:21:00,
2013-11-28 21:43:00,24.0,16.0,30.48,NNW,346,1.0,5.0,71,0.00,,,0.00,,2013-11-29 03:43:00,
2013-11-28 21:53:00,24.0,16.0,30.48,NNE,16,3.0,6.0,72,0.00,,,0.00,,2013-11-29 03:53:00,
2013-11-28 22:23:00,23.0,16.0,30.49,NNE,13,1.0,5.0,74,0.00,,,0.00,,2013-11-29 04:23:00,
2013-11-28 22:43:00,23.0,16.0,30.50,WNW,302,2.0,5.0,75,0.00,,,0.00,,2013-11-29 04:43:00,
2013-11-28 22:52:00,22.0,15.0,30.50,North,360,2.0,6.0,75,0.00,,,0.00,,2013-11-29 04:52:00,
2013-11-28 23:12:00,22.0,16.0,30.50,NNE,19,2.0,6.0,76,0.00,,,0.00,,2013-11-29 05:12:00,
2013-11-28 23:22:00,22.0,16.0,30.51,NNE,25,2.0,5.0,76,0.00,,,0.00,,2013-11-29 05:22:00,
2013-11-28 23:43:00,21.0,15.0,30.52,NW,320,0.0,3.0,77,0.00,,,0.00,,2013-11-29 05:43:00,
2013-11-28 23:53:00,21.0,15.0,30.52,NNE,17,0.0,3.0,76,0.00,,,0.00,,2013-11-29 05:53:00,